createdAt,value
2022-09-07T00:01:12.665Z,3.88
2022-09-07T00:03:40.865Z,4.10
2022-09-07T00:06:11.877Z,5.22
2022-09-07T00:08:43.846Z,2.92
2022-09-07T00:11:13.815Z,5.38
2022-09-07T00:13:43.245Z,5.47
2022-09-07T00:16:14.575Z,2.13
2022-09-07T00:18:46.017Z,3.50
2022-09-07T00:21:16.675Z,4.70
2022-09-07T00:23:48.255Z,5.38
2022-09-07T00:26:19.157Z,2.65
2022-09-07T00:28:47.816Z,2.78
2022-09-07T00:31:17.859Z,5.65
2022-09-07T00:33:48.328Z,2.63
2022-09-07T00:36:17.074Z,3.22
2022-09-07T00:38:47.336Z,4.30
2022-09-07T00:41:16.569Z,2.67
2022-09-07T00:43:46.766Z,3.78
2022-09-07T00:46:17.040Z,3.30
2022-09-07T00:48:50.034Z,4.32
2022-09-07T00:51:22.205Z,1.85
2022-09-07T00:53:58.456Z,2.35
2022-09-07T00:56:30.176Z,5.35
2022-09-07T00:58:59.094Z,5.82
2022-09-07T01:01:27.742Z,6.72
2022-09-07T01:03:59.755Z,5.65
2022-09-07T01:06:31.314Z,6.43
2022-09-07T01:09:04.587Z,4.32
2022-09-07T01:11:37.420Z,4.45
2022-09-07T01:14:09.556Z,4.13
2022-09-07T01:16:48.747Z,3.45
2022-09-07T01:19:54.345Z,4.88
2022-09-07T01:22:49.988Z,5.72
2022-09-07T01:25:27.855Z,2.25
2022-09-07T01:28:11.345Z,5.38
2022-09-07T01:30:41.670Z,2.05
2022-09-07T01:33:28.446Z,3.95
2022-09-07T01:36:06.274Z,4.32
2022-09-07T01:38:39.915Z,2.42
2022-09-07T01:41:15.254Z,4.25
2022-09-07T01:43:53.214Z,6.28
2022-09-07T01:46:26.980Z,9.60
2022-09-07T01:49:00.515Z,5.10
2022-09-07T01:51:33.065Z,6.50
2022-09-07T01:54:09.474Z,4.32
2022-09-07T01:56:42.131Z,4.38
2022-09-07T01:59:18.015Z,3.72
2022-09-07T02:01:50.985Z,5.10
2022-09-07T02:04:23.785Z,4.22
2022-09-07T02:06:59.374Z,4.68
2022-09-07T02:09:32.933Z,7.30
2022-09-07T02:12:07.174Z,2.85
2022-09-07T02:14:39.845Z,4.25
2022-09-07T02:17:12.520Z,4.97
2022-09-07T02:19:46.279Z,7.80
2022-09-07T02:22:17.210Z,5.63
2022-09-07T02:24:48.850Z,5.55
2022-09-07T02:27:22.142Z,4.00
2022-09-07T02:29:52.510Z,3.55
2022-09-07T02:32:21.019Z,4.13
2022-09-07T02:34:50.016Z,2.63
2022-09-07T02:37:20.969Z,5.03
2022-09-07T02:39:49.655Z,4.28
2022-09-07T02:42:17.774Z,3.60
2022-09-07T02:44:46.880Z,3.63
2022-09-07T02:47:27.379Z,6.72
2022-09-07T02:50:28.970Z,4.53
2022-09-07T02:53:13.330Z,4.03
2022-09-07T02:55:54.710Z,4.50
2022-09-07T02:58:32.870Z,3.88
2022-09-07T03:01:08.939Z,4.47
2022-09-07T03:03:47.079Z,3.10
2022-09-07T03:06:22.420Z,4.38
2022-09-07T03:08:54.690Z,4.03
2022-09-07T03:11:23.756Z,3.47
2022-09-07T03:13:51.871Z,3.28
2022-09-07T03:16:20.166Z,2.15
2022-09-07T03:18:50.571Z,2.55
2022-09-07T03:21:18.731Z,2.88
2022-09-07T03:23:49.972Z,3.75
2022-09-07T03:26:24.881Z,2.90
2022-09-07T03:28:53.279Z,4.68
2022-09-07T03:31:21.593Z,4.72
2022-09-07T03:33:51.401Z,2.22
2022-09-07T03:36:19.518Z,3.75
2022-09-07T03:38:47.699Z,5.15
2022-09-07T03:41:15.858Z,4.43
2022-09-07T03:43:44.271Z,3.90
2022-09-07T03:46:12.421Z,2.63
2022-09-07T03:48:40.579Z,4.38
2022-09-07T03:51:11.390Z,5.63
2022-09-07T03:53:41.277Z,3.35
2022-09-07T03:56:11.621Z,3.90
2022-09-07T03:58:39.850Z,6.40
2022-09-07T04:01:10.020Z,3.83
2022-09-07T04:03:38.789Z,7.43
2022-09-07T04:06:07.208Z,3.72
2022-09-07T04:08:38.151Z,6.25
2022-09-07T04:11:08.059Z,5.40
2022-09-07T04:13:37.441Z,5.82
2022-09-07T04:16:12.029Z,3.75
2022-09-07T04:18:40.180Z,7.35
2022-09-07T04:21:08.690Z,5.18
2022-09-07T04:23:40.243Z,3.97
2022-09-07T04:26:14.491Z,3.72
2022-09-07T04:28:42.640Z,4.88
2022-09-07T04:31:10.816Z,3.72
2022-09-07T04:33:39.070Z,8.27
2022-09-07T04:36:07.720Z,7.18
2022-09-07T04:38:36.058Z,5.25
2022-09-07T04:41:08.589Z,7.13
2022-09-07T04:43:37.000Z,7.20
2022-09-07T04:46:06.493Z,8.45
2022-09-07T04:48:35.238Z,8.57
2022-09-07T04:51:06.910Z,6.82
2022-09-07T04:53:35.831Z,11.32
2022-09-07T04:56:06.265Z,5.80
2022-09-07T04:58:34.779Z,6.70
2022-09-07T05:01:03.243Z,8.77
2022-09-07T05:03:32.502Z,3.35
2022-09-07T05:06:01.930Z,8.43
2022-09-07T05:08:30.470Z,4.32
2022-09-07T05:10:58.641Z,5.05
2022-09-07T05:13:30.831Z,6.30
2022-09-07T05:15:59.351Z,6.82
2022-09-07T05:18:28.135Z,5.88
2022-09-07T05:20:56.331Z,4.18
2022-09-07T05:23:24.731Z,6.70
2022-09-07T05:25:52.931Z,10.48
2022-09-07T05:28:21.091Z,3.85
2022-09-07T05:36:28.692Z,3.08
2022-09-07T05:38:59.232Z,3.47
2022-09-07T05:41:28.084Z,7.55
2022-09-07T05:46:46.284Z,4.68
2022-09-07T05:49:14.411Z,3.83
2022-09-07T05:51:42.651Z,6.60
2022-09-07T05:54:12.502Z,5.93
2022-09-07T05:56:40.931Z,4.20
2022-09-07T05:59:09.300Z,4.50
2022-09-07T06:01:37.643Z,5.05
2022-09-07T06:04:09.270Z,5.13
2022-09-07T06:06:41.440Z,4.10
2022-09-07T06:09:11.761Z,3.35
2022-09-07T06:11:39.991Z,4.25
2022-09-07T06:14:08.322Z,4.40
2022-09-07T06:16:36.665Z,3.03
2022-09-07T06:19:08.571Z,5.95
2022-09-07T06:21:37.673Z,5.65
2022-09-07T06:24:06.233Z,4.18
2022-09-07T06:26:34.753Z,7.05
2022-09-07T06:29:04.237Z,7.25
2022-09-07T06:31:32.743Z,3.72
2022-09-07T06:34:00.836Z,5.15
2022-09-07T06:36:30.571Z,3.97
2022-09-07T06:39:01.791Z,5.15
2022-09-07T06:44:21.673Z,3.08
2022-09-07T06:47:05.267Z,4.93
2022-09-07T06:49:33.702Z,3.28
2022-09-07T06:52:03.952Z,5.20
2022-09-07T06:57:20.315Z,4.53
2022-09-07T06:59:48.670Z,10.10
2022-09-07T07:02:16.863Z,3.33
2022-09-07T07:04:45.442Z,7.63
2022-09-07T07:07:15.062Z,4.72
2022-09-07T07:09:43.362Z,4.75
2022-09-07T07:12:11.602Z,3.70
2022-09-07T07:14:43.939Z,4.93
2022-09-07T07:17:13.699Z,3.13
2022-09-07T07:19:41.852Z,3.58
2022-09-07T07:24:59.741Z,6.18
2022-09-07T07:27:30.274Z,5.38
2022-09-07T07:29:58.514Z,4.22
2022-09-07T07:32:27.893Z,5.35
2022-09-07T07:34:56.062Z,6.43
2022-09-07T07:37:27.968Z,3.50
2022-09-07T07:42:46.832Z,2.85
2022-09-07T07:48:03.758Z,3.35
2022-09-07T07:50:32.780Z,6.72
2022-09-07T07:55:49.722Z,7.10
2022-09-07T07:58:19.933Z,4.88
2022-09-07T08:00:54.830Z,5.65
2022-09-07T08:03:25.459Z,6.15
2022-09-07T08:05:54.675Z,5.35
2022-09-07T08:08:24.233Z,3.97
2022-09-07T08:10:53.289Z,5.85
2022-09-07T08:13:22.773Z,6.35
2022-09-07T08:15:51.076Z,7.28
2022-09-07T08:18:19.372Z,5.20
2022-09-07T08:20:47.342Z,2.97
2022-09-07T08:23:15.522Z,3.22
2022-09-07T08:25:51.052Z,4.68
2022-09-07T08:28:19.302Z,3.78
2022-09-07T08:30:48.705Z,9.48
2022-09-07T08:33:17.325Z,3.58
2022-09-07T08:35:55.742Z,7.22
2022-09-07T08:38:23.973Z,7.78
2022-09-07T08:40:52.311Z,5.95
2022-09-07T08:43:30.697Z,5.13
2022-09-07T08:46:06.302Z,5.63
2022-09-07T08:48:36.065Z,6.32
2022-09-07T08:51:10.491Z,6.90
2022-09-07T08:53:44.864Z,4.95
2022-09-07T08:56:18.264Z,5.47
2022-09-07T08:58:50.145Z,5.82
2022-09-07T09:01:37.876Z,5.47
2022-09-07T09:04:15.988Z,8.32
2022-09-07T09:07:06.156Z,7.13
2022-09-07T09:09:47.612Z,6.72
2022-09-07T09:12:24.489Z,8.10
2022-09-07T09:15:15.970Z,7.95
2022-09-07T09:17:51.241Z,7.75
2022-09-07T09:20:26.726Z,4.85
2022-09-07T09:23:02.102Z,4.18
2022-09-07T09:25:36.924Z,6.47
2022-09-07T09:28:05.043Z,6.45
2022-09-07T09:30:33.530Z,5.97
2022-09-07T09:33:17.971Z,4.75
2022-09-07T09:35:47.284Z,5.65
2022-09-07T09:38:29.900Z,3.95
2022-09-07T09:41:01.434Z,7.60
2022-09-07T09:43:39.862Z,4.65
2022-09-07T09:46:19.907Z,5.63
2022-09-07T09:48:59.772Z,5.43
2022-09-07T09:54:25.282Z,3.97
2022-09-07T09:56:53.733Z,4.88
2022-09-07T10:05:30.951Z,5.20
2022-09-07T10:07:59.291Z,4.35
2022-09-07T10:10:28.913Z,6.80
2022-09-07T10:12:57.555Z,6.03
2022-09-07T10:18:23.179Z,5.07
2022-09-07T10:20:53.453Z,5.10
2022-09-07T10:23:24.617Z,4.03
2022-09-07T10:25:53.222Z,4.00
2022-09-07T10:28:23.906Z,5.28
2022-09-07T10:31:15.113Z,5.57
2022-09-07T10:36:51.589Z,7.15
2022-09-07T10:39:26.143Z,8.77
2022-09-07T10:42:02.279Z,8.88
2022-09-07T10:47:19.863Z,8.70
2022-09-07T10:52:48.868Z,7.22
2022-09-07T10:55:24.391Z,8.32
2022-09-07T10:58:07.988Z,6.70
2022-09-07T11:00:43.221Z,8.18
2022-09-07T11:03:34.199Z,7.80
2022-09-07T11:06:16.170Z,9.35
2022-09-07T11:09:16.856Z,6.78
2022-09-07T11:12:07.906Z,7.13
2022-09-07T11:14:43.071Z,6.03
2022-09-07T11:17:17.893Z,9.05
2022-09-07T11:19:52.485Z,9.10
2022-09-07T11:22:32.009Z,5.10
2022-09-07T11:28:10.411Z,7.65
2022-09-07T11:30:45.597Z,6.57
2022-09-07T11:33:21.522Z,7.50
2022-09-07T11:35:55.043Z,9.27
2022-09-07T11:38:31.804Z,6.72
2022-09-07T11:41:16.581Z,5.80
2022-09-07T11:43:48.283Z,5.80
2022-09-07T11:46:23.048Z,5.80
2022-09-07T11:48:56.122Z,6.43
2022-09-07T11:51:31.563Z,6.00
2022-09-07T11:54:17.879Z,8.40
2022-09-07T11:56:54.758Z,7.47
2022-09-07T11:59:37.411Z,7.10
2022-09-07T12:02:55.401Z,5.95
2022-09-07T12:05:32.599Z,8.73
2022-09-07T12:08:26.341Z,7.80
2022-09-07T12:11:21.345Z,5.28
2022-09-07T12:14:13.549Z,6.25
2022-09-07T12:16:58.659Z,6.28
2022-09-07T12:19:28.655Z,6.03
2022-09-07T12:21:59.822Z,9.50
2022-09-07T12:24:40.473Z,6.82
2022-09-07T12:27:33.203Z,6.18
2022-09-07T12:30:49.627Z,9.60
2022-09-07T12:33:34.597Z,6.82
2022-09-07T12:36:24.030Z,11.35
2022-09-07T12:39:13.269Z,6.55
2022-09-07T12:41:47.862Z,7.80
2022-09-07T12:44:19.448Z,8.38
2022-09-07T12:46:59.428Z,6.93
2022-09-07T12:49:48.482Z,9.85
2022-09-07T12:52:48.580Z,10.02
2022-09-07T12:58:52.155Z,7.93
2022-09-07T13:01:34.009Z,5.57
2022-09-07T13:04:37.623Z,6.10
2022-09-07T13:07:41.401Z,5.45
2022-09-07T13:10:27.439Z,7.47
2022-09-07T13:13:02.550Z,7.47
2022-09-07T13:15:43.989Z,6.87
2022-09-07T13:18:28.679Z,5.32
2022-09-07T13:21:29.949Z,5.15
2022-09-07T13:24:48.288Z,5.18
2022-09-07T13:27:47.209Z,5.88
2022-09-07T13:30:30.198Z,7.13
2022-09-07T13:33:35.832Z,7.00
2022-09-07T13:36:06.143Z,8.05
2022-09-07T13:38:37.494Z,7.68
2022-09-07T13:41:13.659Z,6.95
2022-09-07T13:46:28.800Z,8.13
2022-09-07T13:49:04.188Z,8.95
2022-09-07T13:51:40.353Z,10.30
2022-09-07T13:54:19.321Z,10.63
2022-09-07T13:56:56.681Z,7.47
2022-09-07T13:59:28.181Z,6.32
2022-09-07T14:01:57.777Z,12.55
2022-09-07T14:04:28.423Z,13.52
2022-09-07T14:07:07.388Z,17.70
2022-09-07T14:09:36.421Z,10.10
2022-09-07T14:12:15.654Z,11.10
2022-09-07T14:14:44.528Z,7.30
2022-09-07T14:17:15.460Z,6.95
2022-09-07T14:19:45.947Z,11.70
2022-09-07T14:22:16.682Z,9.13
2022-09-07T14:24:49.452Z,8.15
2022-09-07T14:27:23.141Z,12.07
2022-09-07T14:30:16.166Z,8.68
2022-09-07T14:32:45.741Z,9.43
2022-09-07T14:35:14.564Z,6.82
2022-09-07T14:37:44.813Z,7.35
2022-09-07T14:40:17.976Z,10.88
2022-09-07T14:42:49.776Z,9.68
2022-09-07T14:45:20.691Z,9.48
2022-09-07T14:47:52.442Z,11.00
2022-09-07T14:50:23.597Z,10.73
2022-09-07T14:55:43.272Z,13.60
2022-09-07T14:58:24.523Z,13.25
2022-09-07T15:04:00.509Z,11.32
2022-09-07T15:09:35.231Z,8.43
2022-09-07T15:12:12.851Z,6.72
2022-09-07T15:14:43.443Z,7.57
2022-09-07T15:20:32.142Z,8.68
2022-09-07T15:23:00.622Z,8.40
2022-09-07T15:25:29.331Z,8.30
2022-09-07T15:27:57.773Z,8.82
2022-09-07T15:30:28.061Z,12.23
2022-09-07T15:32:57.404Z,12.98
2022-09-07T15:35:26.383Z,7.53
2022-09-07T15:38:03.230Z,15.55
2022-09-07T15:40:56.180Z,15.82
2022-09-07T15:43:28.504Z,12.00
2022-09-07T15:45:58.758Z,15.13
2022-09-07T15:48:27.300Z,11.57
2022-09-07T15:51:03.465Z,11.38
2022-09-07T15:56:22.740Z,8.65
2022-09-07T15:58:53.279Z,15.10
2022-09-07T16:04:15.563Z,13.00
2022-09-07T16:06:44.579Z,10.73
2022-09-07T16:13:16.877Z,11.95
2022-09-07T16:15:46.832Z,9.30
2022-09-07T16:18:17.627Z,13.45
2022-09-07T16:20:45.964Z,11.50
2022-09-07T16:23:15.924Z,11.25
2022-09-07T16:25:57.394Z,12.50
2022-09-07T16:28:26.203Z,10.80
2022-09-07T16:30:54.192Z,19.48
2022-09-07T16:33:31.273Z,10.23
2022-09-07T16:36:06.357Z,13.30
2022-09-07T16:38:50.117Z,11.52
2022-09-07T16:41:20.490Z,15.77
2022-09-07T16:43:48.563Z,13.48
2022-09-07T16:46:18.555Z,12.30
2022-09-07T16:48:48.533Z,13.18
2022-09-07T16:51:19.741Z,8.35
2022-09-07T16:53:49.222Z,11.43
2022-09-07T16:56:19.113Z,16.05
2022-09-07T16:58:48.562Z,11.93
2022-09-07T17:01:19.240Z,8.18
2022-09-07T17:03:51.887Z,15.63
2022-09-07T17:06:21.632Z,12.00
2022-09-07T17:08:49.433Z,15.35
2022-09-07T17:11:19.832Z,12.32
2022-09-07T17:13:48.161Z,12.57
2022-09-07T17:16:17.853Z,12.93
2022-09-07T17:21:39.282Z,10.05
2022-09-07T17:24:09.073Z,14.13
2022-09-07T17:26:36.933Z,11.50
2022-09-07T17:29:05.004Z,15.93
2022-09-07T17:34:28.658Z,12.15
2022-09-07T17:36:56.681Z,12.02
2022-09-07T17:39:24.499Z,12.43
2022-09-07T17:41:53.277Z,14.90
2022-09-07T17:44:22.099Z,12.60
2022-09-07T17:46:50.108Z,14.27
2022-09-07T17:49:18.379Z,13.20
2022-09-07T17:51:47.947Z,12.07
2022-09-07T17:54:17.778Z,14.65
2022-09-07T17:56:46.312Z,12.45
2022-09-07T18:02:01.951Z,12.15
2022-09-07T18:04:29.846Z,13.43
2022-09-07T18:06:59.027Z,13.75
2022-09-07T18:09:26.890Z,9.73
2022-09-07T18:11:54.908Z,7.07
2022-09-07T18:14:22.829Z,11.40
2022-09-07T18:16:53.379Z,9.15
2022-09-07T18:19:21.519Z,11.60
2022-09-07T18:21:51.899Z,11.95
2022-09-07T18:24:24.049Z,9.38
2022-09-07T18:26:54.447Z,6.35
2022-09-07T18:29:29.300Z,14.32
2022-09-07T18:32:01.862Z,11.77
2022-09-07T18:34:31.985Z,9.48
2022-09-07T18:37:00.391Z,16.67
2022-09-07T18:39:30.389Z,10.57
2022-09-07T18:42:00.383Z,14.50
2022-09-07T18:47:23.265Z,12.60
2022-09-07T18:49:57.017Z,10.63
2022-09-07T18:55:18.770Z,14.02
2022-09-07T18:57:46.937Z,11.05
2022-09-07T19:00:25.004Z,12.73
2022-09-07T19:02:53.405Z,16.67
2022-09-07T19:08:10.324Z,12.82
2022-09-07T19:10:40.745Z,13.00
2022-09-07T19:13:09.493Z,11.00
2022-09-07T19:15:39.637Z,11.95
2022-09-07T19:18:09.936Z,7.45
2022-09-07T19:20:38.966Z,9.63
2022-09-07T19:23:08.813Z,6.53
2022-09-07T19:25:44.954Z,6.13
2022-09-07T19:28:13.743Z,3.97
2022-09-07T19:30:43.429Z,4.93
2022-09-07T19:33:13.263Z,6.25
2022-09-07T19:35:41.786Z,5.93
2022-09-07T19:38:11.169Z,4.47
2022-09-07T19:40:39.291Z,4.57
2022-09-07T19:43:11.412Z,7.65
2022-09-07T19:45:41.019Z,5.20
2022-09-07T19:48:10.235Z,2.72
2022-09-07T19:50:39.577Z,4.35
2022-09-07T19:53:08.183Z,7.30
2022-09-07T19:55:43.253Z,4.07
2022-09-07T19:58:15.342Z,5.50
2022-09-07T20:00:45.057Z,5.53
2022-09-07T20:03:13.780Z,5.93
2022-09-07T20:05:42.652Z,3.88
2022-09-07T20:08:11.642Z,3.25
2022-09-07T20:10:43.545Z,4.85
2022-09-07T20:13:14.533Z,4.07
2022-09-07T20:15:44.532Z,5.80
2022-09-07T20:18:13.975Z,5.05
2022-09-07T20:20:42.795Z,3.25
2022-09-07T20:23:11.653Z,2.90
2022-09-07T20:25:39.712Z,5.50
2022-09-07T20:28:08.055Z,5.10
2022-09-07T20:30:43.058Z,5.90
2022-09-07T20:33:11.115Z,3.47
2022-09-07T20:35:39.276Z,4.45
2022-09-07T20:38:07.409Z,3.83
2022-09-07T20:40:35.749Z,5.13
2022-09-07T20:43:04.469Z,4.03
2022-09-07T20:45:43.228Z,4.07
2022-09-07T20:48:13.165Z,4.18
2022-09-07T20:50:41.821Z,4.13
2022-09-07T20:53:10.938Z,5.53
2022-09-07T20:55:39.058Z,5.22
2022-09-07T20:58:06.879Z,4.25
2022-09-07T21:00:35.554Z,4.07
2022-09-07T21:03:05.299Z,6.15
2022-09-07T21:05:36.012Z,5.93
2022-09-07T21:08:04.221Z,2.45
2022-09-07T21:10:32.854Z,6.25
2022-09-07T21:13:01.006Z,5.43
2022-09-07T21:15:29.523Z,5.60
2022-09-07T21:17:57.803Z,4.50
2022-09-07T21:20:27.597Z,4.55
2022-09-07T21:22:56.617Z,6.55
2022-09-07T21:25:25.249Z,4.07
2022-09-07T21:27:54.038Z,7.75
2022-09-07T21:30:22.134Z,10.18
2022-09-07T21:32:51.727Z,5.57
2022-09-07T21:35:22.426Z,9.63
2022-09-07T21:37:56.052Z,7.75
2022-09-07T21:40:25.280Z,5.57
2022-09-07T21:42:54.083Z,5.65
2022-09-07T21:45:24.629Z,5.75
2022-09-07T21:47:54.131Z,3.17
2022-09-07T21:50:22.553Z,7.18
2022-09-07T21:52:50.910Z,5.20
2022-09-07T21:55:20.619Z,5.95
2022-09-07T21:57:49.328Z,5.38
2022-09-07T22:00:17.629Z,7.68
2022-09-07T22:02:45.839Z,5.80
2022-09-07T22:05:14.239Z,4.60
2022-09-07T22:07:42.443Z,4.60
2022-09-07T22:10:10.898Z,6.78
2022-09-07T22:12:40.578Z,7.32
2022-09-07T22:15:09.077Z,5.68
2022-09-07T22:17:37.022Z,5.70
2022-09-07T22:20:05.308Z,6.20
2022-09-07T22:22:35.285Z,4.22
2022-09-07T22:25:03.291Z,4.82
2022-09-07T22:27:31.767Z,4.47
2022-09-07T22:30:01.178Z,5.47
2022-09-07T22:32:49.997Z,6.20
2022-09-07T22:35:19.384Z,3.72
2022-09-07T22:37:47.389Z,7.28
2022-09-07T22:40:15.573Z,6.63
2022-09-07T22:42:43.507Z,5.05
2022-09-07T22:45:32.954Z,4.15
2022-09-07T22:48:01.212Z,4.65
2022-09-07T22:50:29.314Z,4.88
2022-09-07T22:52:57.373Z,4.70
2022-09-07T22:55:25.253Z,6.85
2022-09-07T22:57:53.204Z,3.50
2022-09-07T23:00:21.772Z,7.22
2022-09-07T23:02:51.139Z,6.70
2022-09-07T23:05:18.909Z,8.23
2022-09-07T23:07:49.291Z,7.00
2022-09-07T23:10:17.795Z,7.10
2022-09-07T23:12:45.490Z,6.15
2022-09-07T23:15:13.419Z,8.68
2022-09-07T23:18:00.118Z,6.10
2022-09-07T23:22:55.913Z,7.30
2022-09-07T23:25:23.871Z,4.88
2022-09-07T23:27:52.592Z,5.60
2022-09-07T23:30:20.833Z,4.28
2022-09-07T23:32:48.984Z,7.30
2022-09-07T23:35:18.553Z,4.80
2022-09-07T23:37:46.513Z,5.85
2022-09-07T23:40:14.639Z,9.70
2022-09-07T23:42:42.672Z,4.13
2022-09-07T23:45:10.991Z,2.97
2022-09-07T23:47:38.993Z,5.43
2022-09-07T23:50:08.354Z,6.43
2022-09-07T23:52:38.223Z,5.03
2022-09-07T23:55:07.240Z,5.05
2022-09-07T23:57:34.933Z,6.82
